Time;durP1;ratioP1;P1;durP2;ratioP2;P2;SDS_P1;SDS_P2;PMS_P1;PMS_P2;Temp;Humidity;BMP_temperature;BMP_pressure;BME280_temperature;BME280_humidity;BME280_pressure;Samples;Min_cycle;Max_cycle;Signal;HPM_P1;HPM_P2
2023/08/26 00:04:01;;;;;;;6.68;4.47;;;;;;;22.76;98.94;99473.91;10350619;28;20120;-52
2023/08/26 00:09:03;;;;;;;5.30;4.13;;;;;;;22.77;98.23;99457.41;10333350;28;20760;-52
2023/08/26 00:14:05;;;;;;;4.75;4.25;;;;;;;;;;10305667;28;20171;-51
2023/08/26 00:19:06;;;;;;;5.00;3.88;;;;;;;22.70;99.10;99477.47;10336907;28;20058;-51
2023/08/26 00:24:08;;;;;;;5.45;4.07;;;;;;;22.67;98.46;99469.78;10321495;28;20054;-52
2023/08/26 00:29:10;;;;;;;6.15;4.60;;;;;;;22.68;99.82;99474.16;10350720;28;20127;-53
2023/08/26 00:34:11;;;;;;;7.50;4.80;;;;;;;22.69;100.00;99468.53;10316096;28;20053;-52
2023/08/26 00:39:12;;;;;;;4.07;3.63;;;;;;;22.76;100.00;99482.03;10345925;28;20061;-51
2023/08/26 00:44:14;;;;;;;4.30;3.83;;;;;;;22.73;100.00;99479.78;10350007;28;20063;-58
2023/08/26 00:49:17;;;;;;;5.05;2.95;;;;;;;22.71;99.37;99465.59;10329700;28;20057;-50
2023/08/26 00:54:19;;;;;;;;;;;;;;;22.73;100.00;99460.78;10347973;28;20152;-51
2023/08/26 00:59:20;;;;;;;5.65;3.20;;;;;;;22.66;100.00;99441.84;10333741;28;19925;-52
2023/08/26 01:04:22;;;;;;;3.78;2.53;;;;;;;22.70;99.81;99466.63;10334153;28;20127;-52
2023/08/26 01:09:24;;;;;;;4.95;2.28;;;;;;;22.67;99.67;99475.22;10337280;28;20769;-53
2023/08/26 01:14:34;;;;;;;3.60;2.47;;;;;;;22.59;98.13;99466.31;10347968;28;20073;-51
2023/08/26 01:19:38;;;;;;;4.25;2.13;;;;;;;22.55;97.59;99478.66;10351650;28;20137;-52
2023/08/26 01:24:41;;;;;;;4.15;2.05;;;;;;;22.44;97.61;99457.66;10348970;28;20086;-52
2023/08/26 01:29:43;;;;;;;4.40;2.25;;;;;;;22.50;97.96;99466.81;10335435;28;20129;-52
2023/08/26 01:34:51;;;;;;;5.43;2.00;;;;;;;22.43;97.92;99477.72;10315800;28;20053;-52
2023/08/26 01:39:54;;;;;;;5.72;2.42;;;;;;;22.42;97.84;99489.59;10330887;28;20127;-52
2023/08/26 01:44:56;;;;;;;3.75;2.22;;;;;;;22.37;97.56;99492.16;10346860;28;20053;-52
2023/08/26 01:49:58;;;;;;;3.65;2.40;;;;;;;22.35;97.86;99481.53;10332719;28;20119;-52
2023/08/26 01:54:59;;;;;;;3.80;2.05;;;;;;;22.32;97.10;99494.69;10341142;28;20057;-54
2023/08/26 02:00:01;;;;;;;3.28;2.50;;;;;;;22.21;97.02;99496.19;10342623;28;20052;-52
2023/08/26 02:05:02;;;;;;;3.72;2.40;;;;;;;22.19;97.97;99498.28;10342758;28;20554;-53
2023/08/26 02:10:04;;;;;;;3.92;2.47;;;;;;;22.15;98.13;99506.00;10318689;28;20065;-52
2023/08/26 02:15:06;;;;;;;4.75;2.72;;;;;;;22.10;98.50;99511.25;10337036;28;20056;-53
2023/08/26 02:20:09;;;;;;;4.47;2.80;;;;;;;22.09;100.00;99512.31;10340667;28;20045;-53
2023/08/26 02:25:10;;;;;;;4.05;2.67;;;;;;;22.09;100.00;99509.59;10304621;28;20084;-51
2023/08/26 02:30:12;;;;;;;4.03;2.42;;;;;;;22.09;99.58;99508.78;10327218;28;20681;-52
2023/08/26 02:35:14;;;;;;;4.47;2.80;;;;;;;22.02;100.00;99514.22;10337580;28;20084;-52
2023/08/26 02:40:16;;;;;;;5.80;2.97;;;;;;;22.04;100.00;99517.56;10335955;28;20691;-53
2023/08/26 02:45:17;;;;;;;4.72;3.85;;;;;;;21.91;100.00;99523.84;10330274;28;20111;-53
2023/08/26 02:50:19;;;;;;;5.43;3.78;;;;;;;21.88;100.00;99540.53;10316478;28;20073;-54
2023/08/26 02:55:21;;;;;;;5.05;3.33;;;;;;;21.91;100.00;99542.00;10347089;28;20053;-53
2023/08/26 03:00:24;;;;;;;5.05;3.65;;;;;;;21.98;100.00;99554.47;10346976;28;20056;-52
2023/08/26 03:05:25;;;;;;;4.90;2.67;;;;;;;21.93;100.00;99543.44;10346631;28;20731;-52
2023/08/26 03:10:26;;;;;;;6.28;3.90;;;;;;;21.92;100.00;99566.16;10316241;28;20062;-52
2023/08/26 03:15:29;;;;;;;3.65;3.28;;;;;;;21.94;100.00;99576.78;10346179;28;20050;-53
2023/08/26 03:20:31;;;;;;;6.07;3.85;;;;;;;21.78;100.00;99576.19;10330995;28;20065;-54
2023/08/26 03:25:40;;;;;;;5.45;3.72;;;;;;;21.84;100.00;99594.34;10336241;28;20160;-53
2023/08/26 03:30:41;;;;;;;6.05;3.58;;;;;;;21.87;100.00;99580.34;10332028;28;20065;-53
2023/08/26 03:35:43;;;;;;;5.47;3.92;;;;;;;21.80;99.43;99582.25;10329688;28;20133;-53
2023/08/26 03:40:44;;;;;;;5.80;3.58;;;;;;;21.59;100.00;99563.56;10329515;28;20061;-53
2023/08/26 03:45:46;;;;;;;5.75;4.05;;;;;;;21.88;100.00;99613.69;10333801;28;20046;-53
2023/08/26 03:50:51;;;;;;;6.65;4.22;;;;;;;21.98;100.00;99611.38;10342670;28;20099;-53
2023/08/26 03:55:52;;;;;;;5.63;4.10;;;;;;;22.03;100.00;99626.97;10321826;28;20682;-53
2023/08/26 04:01:06;;;;;;;4.70;3.50;;;;;;;22.02;100.00;99636.16;10341384;28;20053;-50
2023/08/26 04:06:08;;;;;;;5.88;3.90;;;;;;;22.01;98.64;99627.19;10340163;28;21437;-52
2023/08/26 04:11:10;;;;;;;3.72;3.42;;;;;;;22.01;95.83;99637.22;10341004;28;20062;-54
2023/08/26 04:16:11;;;;;;;5.93;3.80;;;;;;;22.00;96.52;99643.66;10342774;28;20880;-52
2023/08/26 04:21:13;;;;;;;5.47;3.38;;;;;;;21.98;94.93;99637.59;10339039;28;20045;-52
2023/08/26 04:26:14;;;;;;;3.67;3.30;;;;;;;21.95;95.07;99643.47;10339786;28;20647;-52
2023/08/26 04:31:16;;;;;;;5.97;4.40;;;;;;;21.90;93.04;99652.22;10341055;28;20049;-53
2023/08/26 04:36:17;;;;;;;4.45;4.05;;;;;;;21.86;91.58;99662.66;10329624;28;20049;-53
2023/08/26 04:41:19;;;;;;;5.78;4.05;;;;;;;21.82;91.00;99661.41;10345280;28;20218;-52
2023/08/26 04:46:20;;;;;;;4.93;4.47;;;;;;;21.79;91.06;99667.25;10335293;28;20694;-53
2023/08/26 04:51:27;;;;;;;4.95;4.50;;;;;;;21.77;91.95;99672.06;10332961;28;20145;-53
2023/08/26 04:56:30;;;;;;;5.80;4.13;;;;;;;21.69;90.83;99673.13;10342912;28;20134;-53
2023/08/26 05:01:32;;;;;;;4.63;3.97;;;;;;;21.62;92.26;99672.28;10318742;28;20136;-53
2023/08/26 05:06:34;;;;;;;5.72;4.03;;;;;;;21.61;91.80;99675.22;10345674;28;20119;-51
2023/08/26 05:11:35;;;;;;;4.78;4.13;;;;;;;21.66;92.84;99694.34;10339492;28;20065;-52
2023/08/26 05:16:36;;;;;;;7.07;3.38;;;;;;;21.65;88.87;99707.06;10342528;28;20049;-53
2023/08/26 05:21:38;;;;;;;4.85;3.03;;;;;;;21.60;87.85;99716.88;10340787;28;20056;-54
2023/08/26 05:26:42;;;;;;;3.10;2.65;;;;;;;21.60;87.11;99723.09;10344152;28;20050;-52
2023/08/26 05:31:45;;;;;;;3.38;2.13;;;;;;;21.57;82.73;99728.13;10341222;28;20163;-57
2023/08/26 05:36:46;;;;;;;4.50;1.90;;;;;;;21.54;82.88;99734.78;10339783;28;20046;-52
2023/08/26 05:41:48;;;;;;;3.67;1.60;;;;;;;21.38;79.14;99733.28;10342893;28;20154;-52
2023/08/26 05:46:49;;;;;;;1.67;1.13;;;;;;;21.33;73.15;99749.31;10338878;28;20050;-52
2023/08/26 05:51:51;;;;;;;3.83;1.70;;;;;;;21.39;72.57;99753.06;10341765;28;20057;-53
2023/08/26 05:56:52;;;;;;;3.25;1.00;;;;;;;21.23;71.48;99754.28;10340309;28;20093;-53
2023/08/26 06:01:55;;;;;;;1.48;1.05;;;;;;;21.38;70.83;99768.50;10325981;28;20058;-52
2023/08/26 06:06:57;;;;;;;1.07;0.80;;;;;;;21.47;70.26;99779.97;10307435;28;20158;-52
2023/08/26 06:11:59;;;;;;;1.70;0.77;;;;;;;21.29;69.10;99785.97;10336716;28;20728;-52
2023/08/26 06:17:00;;;;;;;2.53;0.80;;;;;;;21.13;70.02;99790.69;10330557;28;20060;-53
2023/08/26 06:22:02;;;;;;;2.67;0.80;;;;;;;21.17;67.34;99797.38;10322466;28;20466;-54
2023/08/26 06:27:03;;;;;;;2.67;0.90;;;;;;;21.22;70.09;99810.28;10345405;28;20072;-53
2023/08/26 06:32:05;;;;;;;1.98;1.02;;;;;;;20.95;62.62;99803.97;10345142;28;20073;-52
2023/08/26 06:37:06;;;;;;;1.77;1.05;;;;;;;20.86;65.20;99824.13;10344903;28;20053;-51
2023/08/26 06:42:08;;;;;;;1.35;0.80;;;;;;;20.95;69.67;99820.19;10313364;28;20049;-52
2023/08/26 06:47:10;;;;;;;3.00;1.25;;;;;;;21.02;68.74;99830.00;10339452;28;20635;-53
2023/08/26 06:52:14;;;;;;;2.47;0.85;;;;;;;21.15;66.62;99823.81;10342481;28;20053;-51
2023/08/26 06:57:15;;;;;;;4.38;0.77;;;;;;;21.33;66.91;99825.09;10341400;28;20532;-52
2023/08/26 07:02:17;;;;;;;2.03;0.70;;;;;;;21.43;66.06;99816.59;10342085;28;21442;-56
2023/08/26 07:07:18;;;;;;;1.40;0.70;;;;;;;21.43;66.96;99813.88;10327438;28;20224;-52
2023/08/26 07:12:20;;;;;;;1.83;1.10;;;;;;;21.40;66.88;99819.72;10325123;28;20514;-51
2023/08/26 07:17:22;;;;;;;1.88;0.60;;;;;;;21.53;64.28;99820.59;10340672;28;20839;-52
2023/08/26 07:22:23;;;;;;;1.80;0.70;;;;;;;21.59;65.29;99812.69;10334551;28;20114;-52
2023/08/26 07:27:30;;;;;;;1.52;0.63;;;;;;;21.59;62.89;99807.25;10338947;28;20037;-53
2023/08/26 07:32:34;;;;;;;0.98;0.63;;;;;;;21.56;60.30;99803.13;10335496;28;20061;-54
2023/08/26 07:37:37;;;;;;;2.25;0.43;;;;;;;21.50;59.88;99801.22;10323681;28;20053;-52
2023/08/26 07:42:39;;;;;;;1.60;0.73;;;;;;;21.33;54.48;99787.19;10312283;28;20093;-52
2023/08/26 07:47:42;;;;;;;1.63;0.50;;;;;;;21.44;61.47;99805.56;10312500;28;20057;-52
2023/08/26 07:52:46;;;;;;;2.10;0.80;;;;;;;21.52;61.49;99815.38;10321971;28;20049;-52
2023/08/26 07:57:48;;;;;;;1.40;0.52;;;;;;;21.44;56.69;99807.41;10340702;28;20488;-52
2023/08/26 08:02:49;;;;;;;2.97;0.75;;;;;;;21.64;62.00;99808.31;10341641;28;20050;-53
2023/08/26 08:07:51;;;;;;;1.60;0.70;;;;;;;21.59;55.50;99791.00;10315153;28;20078;-53
2023/08/26 08:12:52;;;;;;;0.93;0.32;;;;;;;21.83;55.83;99811.25;10322485;28;20687;-52
2023/08/26 08:17:54;;;;;;;1.98;0.70;;;;;;;22.02;53.17;99812.28;10301275;28;20049;-51
2023/08/26 08:22:55;;;;;;;1.92;0.80;;;;;;;22.13;55.19;99803.53;10334149;28;20521;-53
2023/08/26 08:28:00;;;;;;;1.33;0.50;;;;;;;22.14;53.45;99799.75;10342945;28;20053;-53
2023/08/26 08:33:02;;;;;;;1.38;0.75;;;;;;;22.31;56.83;99804.72;10336915;28;20062;-52
2023/08/26 08:38:03;;;;;;;3.80;0.80;;;;;;;22.34;55.25;99810.63;10341287;28;20755;-53
2023/08/26 08:43:06;;;;;;;0.90;0.43;;;;;;;22.35;52.33;99796.03;10340133;28;20053;-53
2023/08/26 08:48:07;;;;;;;1.70;0.75;;;;;;;22.54;51.28;99805.13;10335890;28;20103;-52
2023/08/26 08:53:13;;;;;;;2.05;0.40;;;;;;;22.67;52.10;99816.97;10295675;28;20191;-52
2023/08/26 08:58:16;;;;;;;0.93;0.40;;;;;;;22.70;48.29;99821.97;10321725;28;20053;-54
2023/08/26 09:03:18;;;;;;;1.52;0.38;;;;;;;22.73;50.66;99824.28;10336268;28;20072;-54
2023/08/26 09:08:20;;;;;;;1.73;0.60;;;;;;;22.88;48.97;99826.72;10308744;28;20064;-53
2023/08/26 09:13:21;;;;;;;1.05;0.50;;;;;;;22.86;46.48;99823.41;10336665;28;20544;-54
2023/08/26 09:18:23;;;;;;;2.75;0.95;;;;;;;22.72;48.61;99820.72;10339507;28;20057;-54
2023/08/26 09:23:25;;;;;;;1.60;1.08;;;;;;;22.68;47.07;99821.38;10334233;28;20259;-54
2023/08/26 09:28:26;;;;;;;1.52;0.60;;;;;;;22.60;47.39;99817.84;10334513;28;20148;-54
2023/08/26 09:33:28;;;;;;;0.63;0.30;;;;;;;22.78;49.66;99816.34;10321556;28;20053;-53
2023/08/26 09:38:40;;;;;;;2.42;0.70;;;;;;;22.77;46.73;99809.22;10330196;28;20061;-53
2023/08/26 09:43:43;;;;;;;0.70;0.30;;;;;;;22.78;47.89;99806.31;10346085;28;20278;-53
2023/08/26 09:48:49;;;;;;;1.08;0.43;;;;;;;22.83;48.67;99796.69;10341965;28;20061;-53
2023/08/26 09:53:53;;;;;;;1.88;0.57;;;;;;;23.19;48.14;99796.13;10345378;28;20121;-53
2023/08/26 09:58:58;;;;;;;1.73;0.50;;;;;;;23.39;47.83;99806.03;10345684;28;20073;-53
2023/08/26 10:04:05;;;;;;;2.10;0.47;;;;;;;23.43;48.66;99790.97;10337872;28;20407;-52
2023/08/26 10:09:24;;;;;;;2.22;0.70;;;;;;;23.42;48.22;99794.72;10346124;28;20612;-54
2023/08/26 10:14:27;;;;;;;1.17;0.47;;;;;;;23.16;46.88;99790.31;10342045;28;20062;-55
2023/08/26 10:19:30;;;;;;;2.38;0.80;;;;;;;23.04;47.72;99779.28;10342358;28;20061;-53
2023/08/26 10:24:31;;;;;;;1.08;0.65;;;;;;;23.36;47.63;99777.44;10334861;28;20065;-54
2023/08/26 10:29:36;;;;;;;1.13;0.60;;;;;;;23.68;48.14;99787.47;10328407;28;20045;-53
2023/08/26 10:34:37;;;;;;;1.50;0.40;;;;;;;23.93;47.80;99788.31;10303716;28;20153;-54
2023/08/26 10:39:39;;;;;;;1.65;0.77;;;;;;;23.90;47.44;99796.91;10342385;28;20058;-54
2023/08/26 10:44:44;;;;;;;2.05;0.50;;;;;;;24.10;47.57;99804.06;10345411;28;20053;-53
2023/08/26 10:49:47;;;;;;;0.90;0.50;;;;;;;24.31;47.25;99797.38;10344857;28;20057;-54
2023/08/26 10:54:49;;;;;;;;;;;;;;;24.29;44.06;99796.75;10323885;28;20695;-57
2023/08/26 10:59:50;;;;;;;1.85;0.50;;;;;;;24.42;46.39;99787.63;10320452;28;20031;-53
2023/08/26 11:04:55;;;;;;;2.88;1.20;;;;;;;24.46;46.75;99783.41;10343640;28;20667;-53
2023/08/26 11:09:56;;;;;;;2.35;0.88;;;;;;;24.48;45.64;99778.56;10324964;28;20107;-54
2023/08/26 11:15:05;;;;;;;1.63;0.70;;;;;;;24.32;45.23;99778.13;10337398;28;20054;-53
2023/08/26 11:20:07;;;;;;;2.10;0.52;;;;;;;24.04;45.47;99766.91;10348490;28;20057;-53
2023/08/26 11:25:16;;;;;;;1.13;0.80;;;;;;;23.87;48.33;99786.50;10350908;28;20103;-52
2023/08/26 11:30:17;;;;;;;2.30;0.63;;;;;;;23.82;45.37;99772.69;10352051;28;20470;-53
2023/08/26 11:35:19;;;;;;;1.40;0.60;;;;;;;23.64;47.17;99771.59;10334351;28;20131;-51
2023/08/26 11:40:22;;;;;;;2.58;0.65;;;;;;;23.73;47.62;99774.03;10351530;28;20276;-54
2023/08/26 11:45:24;;;;;;;;;;;;;;;23.77;47.58;99777.97;10351050;28;20659;-53
2023/08/26 11:50:28;;;;;;;1.77;0.47;;;;;;;23.94;47.56;99768.22;10342814;28;19975;-53
2023/08/26 11:55:31;;;;;;;3.13;0.90;;;;;;;24.12;46.63;99772.88;10328488;28;20104;-54
2023/08/26 12:00:33;;;;;;;2.10;0.82;;;;;;;24.46;44.42;99778.78;10345973;28;20053;-54
2023/08/26 12:05:43;;;;;;;1.42;0.38;;;;;;;24.47;44.83;99771.44;10319773;28;20760;-52
2023/08/26 12:10:52;;;;;;;1.25;0.63;;;;;;;24.41;44.98;99775.06;10343936;28;20092;-52
2023/08/26 12:15:57;;;;;;;2.28;1.10;;;;;;;24.39;45.11;99774.47;10328000;28;20765;-53
2023/08/26 12:20:59;;;;;;;3.08;0.90;;;;;;;24.51;45.15;99778.09;10338530;28;20053;-53
2023/08/26 12:26:10;;;;;;;1.02;0.47;;;;;;;24.51;44.66;99783.56;10341854;28;20058;-53
2023/08/26 12:31:12;;;;;;;1.17;0.40;;;;;;;24.78;44.54;99792.25;10327216;28;20111;-53
2023/08/26 12:36:14;;;;;;;1.80;0.40;;;;;;;25.29;43.57;99789.28;10344432;28;20191;-53
2023/08/26 12:41:15;;;;;;;1.25;0.40;;;;;;;25.31;41.99;99785.31;10336652;28;20152;-53
2023/08/26 12:46:18;;;;;;;7.05;1.33;;;;;;;25.34;42.95;99787.56;10344588;28;20910;-53
2023/08/26 12:51:19;;;;;;;1.58;0.40;;;;;;;25.54;42.70;99775.53;10328864;28;20947;-53
2023/08/26 12:56:21;;;;;;;1.13;0.45;;;;;;;25.46;43.63;99781.31;10328251;28;20064;-52
2023/08/26 13:01:23;;;;;;;0.90;0.40;;;;;;;25.43;43.39;99777.16;10336764;28;20091;-47
2023/08/26 13:06:24;;;;;;;1.30;0.55;;;;;;;25.29;44.17;99719.28;10338466;28;20046;-48
2023/08/26 13:11:27;;;;;;;1.50;0.70;;;;;;;25.37;42.38;99773.47;10337489;28;20095;-47
2023/08/26 13:16:28;;;;;;;1.65;0.63;;;;;;;25.28;42.92;99763.97;10334689;28;20057;-47
2023/08/26 13:21:30;;;;;;;1.20;0.30;;;;;;;25.20;43.04;99762.38;10332527;28;20046;-47
2023/08/26 13:26:32;;;;;;;1.08;0.50;;;;;;;24.82;43.15;99738.22;10332714;28;20085;-47
2023/08/26 13:31:33;;;;;;;2.45;0.43;;;;;;;24.81;43.85;99742.00;10334113;28;20094;-47
2023/08/26 13:36:37;;;;;;;2.22;0.52;;;;;;;24.68;44.23;99722.06;10333949;28;20161;-47
2023/08/26 13:41:51;;;;;;;1.23;0.47;;;;;;;25.07;44.32;99740.78;10328542;28;20050;-46
2023/08/26 13:46:53;;;;;;;0.90;0.32;;;;;;;25.17;42.49;99745.69;10333329;28;20143;-47
2023/08/26 13:51:54;;;;;;;1.73;0.45;;;;;;;25.02;41.93;99744.19;10331055;28;20068;-47
2023/08/26 13:56:55;;;;;;;1.88;0.70;;;;;;;24.66;43.53;99745.94;10317452;28;20136;-47
2023/08/26 14:01:57;;;;;;;1.30;0.60;;;;;;;24.72;44.14;99744.19;10330494;28;20065;-47
2023/08/26 14:06:59;;;;;;;2.33;0.60;;;;;;;24.73;44.21;99747.75;10330565;28;20447;-46
2023/08/26 14:12:00;;;;;;;1.05;0.60;;;;;;;24.63;43.22;99730.06;10330313;28;20062;-47
2023/08/26 14:17:02;;;;;;;1.45;0.43;;;;;;;24.66;42.91;99728.78;10294906;28;20429;-46
2023/08/26 14:22:03;;;;;;;2.65;0.50;;;;;;;24.61;42.58;99732.19;10328149;28;20080;-47
2023/08/26 14:27:05;;;;;;;1.60;1.17;;;;;;;24.53;41.99;99725.16;10330291;28;20060;-47
2023/08/26 14:32:06;;;;;;;2.45;0.30;;;;;;;24.59;42.24;99733.47;10332698;28;21542;-54
2023/08/26 14:37:08;;;;;;;1.08;0.50;;;;;;;24.46;42.93;99726.28;10332161;28;20049;-51
2023/08/26 14:42:10;;;;;;;0.90;0.60;;;;;;;24.29;43.95;99707.84;10325396;28;20064;-53
2023/08/26 14:47:11;;;;;;;2.38;0.80;;;;;;;24.24;43.65;99696.81;10340410;28;20535;-53
2023/08/26 14:52:13;;;;;;;1.77;0.55;;;;;;;24.26;44.40;99694.72;10339484;28;20107;-53
2023/08/26 14:57:14;;;;;;;0.85;0.40;;;;;;;24.17;44.24;99688.75;10338882;28;20073;-52
2023/08/26 15:02:16;;;;;;;1.40;0.60;;;;;;;24.13;44.72;99681.28;10337443;28;20521;-54
2023/08/26 15:07:17;;;;;;;1.55;0.75;;;;;;;24.15;44.99;99662.84;10323299;28;20050;-54
2023/08/26 15:12:19;;;;;;;1.45;0.60;;;;;;;24.15;45.42;99646.53;10340833;28;20100;-53
2023/08/26 15:17:20;;;;;;;2.60;1.05;;;;;;;23.97;44.78;99633.78;10342164;28;20057;-52
2023/08/26 15:22:22;;;;;;;1.92;0.43;;;;;;;23.88;44.80;99611.50;10335620;28;20053;-52
2023/08/26 15:27:24;;;;;;;1.27;0.70;;;;;;;23.92;45.15;99637.16;10335303;28;20061;-53
2023/08/26 15:32:25;;;;;;;1.45;0.50;;;;;;;23.91;44.74;99630.06;10337849;28;20049;-54
2023/08/26 15:37:27;;;;;;;1.95;0.55;;;;;;;23.97;45.33;99625.63;10338271;28;20107;-53
2023/08/26 15:42:29;;;;;;;1.30;0.60;;;;;;;23.92;44.16;99626.28;10337654;28;20049;-54
2023/08/26 15:47:30;;;;;;;1.95;0.80;;;;;;;23.93;44.77;99633.41;10339608;28;20070;-54
2023/08/26 15:52:32;;;;;;;1.27;0.70;;;;;;;23.87;44.45;99636.19;10321377;28;20080;-54
2023/08/26 15:57:33;;;;;;;1.40;0.60;;;;;;;23.91;43.57;99643.66;10327019;28;20200;-54
2023/08/26 16:02:34;;;;;;;1.42;0.50;;;;;;;23.90;44.13;99650.16;10334653;28;21063;-53
2023/08/26 16:07:36;;;;;;;2.03;0.70;;;;;;;23.89;44.99;99656.66;10337872;28;20057;-53
2023/08/26 16:12:38;;;;;;;2.00;0.85;;;;;;;23.72;45.62;99661.81;10323890;28;20660;-52
2023/08/26 16:17:39;;;;;;;4.28;1.15;;;;;;;23.51;46.59;99654.91;10339740;28;20058;-52
2023/08/26 16:22:41;;;;;;;2.47;0.95;;;;;;;23.44;46.78;99659.56;10290681;28;20064;-56
2023/08/26 16:27:43;;;;;;;1.00;0.75;;;;;;;23.36;46.74;99670.69;10336401;28;22243;-53
2023/08/26 16:32:45;;;;;;;4.13;0.73;;;;;;;23.26;47.60;99669.31;10337944;28;20123;-53
2023/08/26 16:37:46;;;;;;;3.75;1.52;;;;;;;23.27;48.10;99679.13;10340459;28;20132;-55
2023/08/26 16:42:47;;;;;;;2.15;1.20;;;;;;;23.24;48.01;99681.44;10320571;28;20060;-54
2023/08/26 16:47:49;;;;;;;2.78;0.85;;;;;;;23.01;47.95;99669.25;10339041;28;20073;-54
2023/08/26 16:52:50;;;;;;;1.73;1.20;;;;;;;22.97;48.94;99653.63;10338531;28;20069;-53
2023/08/26 16:57:52;;;;;;;4.35;1.25;;;;;;;23.03;48.43;99674.47;10335798;28;21601;-54
2023/08/26 17:02:54;;;;;;;2.20;1.20;;;;;;;23.05;49.63;99669.66;10327881;28;20140;-54
2023/08/26 17:07:55;;;;;;;3.25;1.30;;;;;;;23.02;49.50;99670.09;10337513;28;20053;-53
2023/08/26 17:12:58;;;;;;;2.47;1.17;;;;;;;23.02;50.16;99672.81;10333457;28;20061;-53
2023/08/26 17:18:00;;;;;;;5.03;1.15;;;;;;;22.94;50.32;99669.31;10293637;28;20069;-53
2023/08/26 17:23:02;;;;;;;2.90;1.45;;;;;;;22.97;51.10;99667.19;10331425;28;20549;-53
2023/08/26 17:28:04;;;;;;;2.88;1.02;;;;;;;22.93;50.97;99667.63;10322981;28;20064;-53
2023/08/26 17:33:06;;;;;;;3.17;1.10;;;;;;;22.87;50.86;99668.50;10329160;28;20249;-53
2023/08/26 17:38:08;;;;;;;3.10;1.27;;;;;;;22.76;51.05;99678.19;10325763;28;20067;-54
2023/08/26 17:43:09;;;;;;;3.40;1.50;;;;;;;22.70;51.43;99683.63;10330122;28;20037;-54
2023/08/26 17:48:11;;;;;;;2.20;1.20;;;;;;;22.68;51.50;99680.31;10335016;28;20064;-53
2023/08/26 17:53:13;;;;;;;3.40;1.30;;;;;;;22.60;51.67;99689.53;10328835;28;20065;-55
2023/08/26 17:58:14;;;;;;;2.15;1.25;;;;;;;22.55;52.62;99687.47;10340484;28;20268;-54
2023/08/26 18:03:18;;;;;;;2.25;1.38;;;;;;;22.53;52.21;99688.72;10338094;28;20049;-53
2023/08/26 18:08:22;;;;;;;1.95;1.15;;;;;;;22.44;52.60;99701.69;10322639;28;20069;-55
2023/08/26 18:13:24;;;;;;;3.95;2.45;;;;;;;22.29;53.01;99687.56;10314332;28;20046;-54
2023/08/26 18:18:27;;;;;;;3.75;1.80;;;;;;;22.25;53.07;99722.41;10344029;28;20108;-54
2023/08/26 18:23:28;;;;;;;2.58;1.77;;;;;;;22.20;54.04;99714.91;10345004;28;20057;-55
2023/08/26 18:28:30;;;;;;;5.03;1.92;;;;;;;22.19;54.10;99726.78;10349649;28;20743;-54
2023/08/26 18:33:31;;;;;;;2.80;1.73;;;;;;;22.16;54.38;99724.50;10330622;28;21131;-54
2023/08/26 18:38:33;;;;;;;3.80;2.03;;;;;;;22.13;54.46;99722.22;10345008;28;20061;-56
2023/08/26 18:43:34;;;;;;;4.68;1.60;;;;;;;22.17;55.41;99728.03;10329657;28;20144;-54
2023/08/26 18:48:36;;;;;;;2.58;1.92;;;;;;;22.13;55.33;99732.22;10329663;28;20070;-54
2023/08/26 18:53:37;;;;;;;3.95;2.45;;;;;;;22.05;55.82;99719.72;10335454;28;20053;-55
2023/08/26 18:58:39;;;;;;;3.08;2.00;;;;;;;22.08;56.57;99724.72;10316648;28;20094;-53
2023/08/26 19:03:40;;;;;;;2.78;2.28;;;;;;;21.87;57.06;99723.94;10329785;28;20053;-57
2023/08/26 19:08:42;;;;;;;4.38;1.80;;;;;;;21.92;57.21;99736.00;10348703;28;20561;-54
2023/08/26 19:13:44;;;;;;;4.40;2.38;;;;;;;21.88;57.53;99741.84;10345413;28;20114;-53
2023/08/26 19:18:45;;;;;;;3.42;1.90;;;;;;;21.92;57.84;99741.41;10333908;28;20425;-54
2023/08/26 19:23:47;;;;;;;2.63;1.23;;;;;;;21.89;58.61;99732.69;10343255;28;20441;-54
2023/08/26 19:28:48;;;;;;;3.30;1.50;;;;;;;21.73;58.32;99716.03;10336203;28;20060;-53
2023/08/26 19:33:50;;;;;;;3.30;1.92;;;;;;;21.83;58.42;99738.94;10328987;28;20061;-54
2023/08/26 19:38:51;;;;;;;2.53;1.48;;;;;;;21.43;59.38;99690.19;10327253;28;20088;-58
2023/08/26 19:43:53;;;;;;;2.88;1.80;;;;;;;21.79;59.82;99740.41;10345184;28;20049;-53
2023/08/26 19:48:54;;;;;;;4.50;1.70;;;;;;;21.77;59.28;99738.94;10332359;28;20049;-53
2023/08/26 19:53:57;;;;;;;2.97;1.50;;;;;;;21.67;59.21;99737.47;10329972;28;20908;-58
2023/08/26 19:58:59;;;;;;;2.28;1.40;;;;;;;21.56;59.29;99745.41;10345792;28;20053;-53
2023/08/26 20:04:00;;;;;;;1.65;1.42;;;;;;;21.56;59.94;99742.69;10330668;28;20548;-53
2023/08/26 20:09:02;;;;;;;2.55;1.88;;;;;;;21.49;60.02;99738.06;10338427;28;20191;-55
2023/08/26 20:14:04;;;;;;;2.50;1.60;;;;;;;21.45;59.89;99736.84;10343643;28;20050;-55
2023/08/26 20:19:05;;;;;;;3.33;1.42;;;;;;;21.40;60.82;99738.50;10348100;28;20314;-55
2023/08/26 20:24:07;;;;;;;3.13;1.30;;;;;;;21.35;60.42;99736.41;10339867;28;20123;-52
2023/08/26 20:29:09;;;;;;;3.25;1.50;;;;;;;21.27;60.94;99725.78;10323865;28;20084;-54
2023/08/26 20:34:11;;;;;;;3.42;1.30;;;;;;;21.28;60.70;99713.91;10342055;28;20168;-54
2023/08/26 20:39:13;;;;;;;3.78;1.58;;;;;;;21.24;61.02;99726.19;10339603;28;20572;-53
2023/08/26 20:44:14;;;;;;;3.90;1.50;;;;;;;21.28;61.60;99714.75;10339358;28;20598;-55
2023/08/26 20:49:17;;;;;;;2.80;1.70;;;;;;;21.26;61.34;99715.97;10327524;28;20136;-54
2023/08/26 20:54:18;;;;;;;2.05;1.85;;;;;;;21.16;62.23;99700.97;10315267;28;20152;-52
2023/08/26 20:59:23;;;;;;;3.40;1.67;;;;;;;21.19;61.31;99710.56;10340055;28;20907;-54
2023/08/26 21:04:24;;;;;;;2.28;1.52;;;;;;;21.12;61.55;99710.56;10346865;28;20057;-51
2023/08/26 21:09:25;;;;;;;3.53;1.65;;;;;;;21.01;62.27;99700.34;10349429;28;20104;-52
2023/08/26 21:14:27;;;;;;;2.47;1.30;;;;;;;20.98;62.02;99695.34;10328591;28;20049;-52
2023/08/26 21:19:28;;;;;;;2.72;1.98;;;;;;;21.01;62.46;99713.88;10333112;28;20065;-52
2023/08/26 21:24:30;;;;;;;2.35;1.60;;;;;;;20.98;62.39;99708.88;10314151;28;20786;-53
2023/08/26 21:29:31;;;;;;;3.63;1.70;;;;;;;21.06;62.69;99722.19;10328131;28;21027;-53
2023/08/26 21:34:33;;;;;;;4.28;1.70;;;;;;;20.97;62.79;99701.78;10340334;28;20054;-53
2023/08/26 21:39:34;;;;;;;3.00;1.90;;;;;;;21.05;63.18;99709.72;10327860;28;20052;-53
2023/08/26 21:44:36;;;;;;;3.38;1.95;;;;;;;21.05;63.09;99714.28;10329497;28;20056;-52
2023/08/26 21:49:39;;;;;;;1.98;1.48;;;;;;;21.05;63.25;99712.44;10339283;28;20111;-52
2023/08/26 21:54:40;;;;;;;4.18;1.98;;;;;;;21.04;63.91;99718.88;10339040;28;20045;-52
2023/08/26 21:59:43;;;;;;;5.30;2.60;;;;;;;21.00;65.20;99709.50;10309427;28;20646;-52
2023/08/26 22:04:45;;;;;;;3.38;2.20;;;;;;;20.95;65.13;99710.09;10338483;28;20050;-53
2023/08/26 22:09:46;;;;;;;4.70;2.30;;;;;;;20.92;65.43;99725.94;10339469;28;20495;-53
2023/08/26 22:14:48;;;;;;;5.32;2.40;;;;;;;20.89;65.88;99723.63;10339018;28;20686;-53
2023/08/26 22:19:50;;;;;;;4.15;2.55;;;;;;;20.85;65.94;99706.94;10326862;28;20666;-53
2023/08/26 22:24:51;;;;;;;2.50;1.85;;;;;;;20.88;66.35;99721.94;10334597;28;20056;-52
2023/08/26 22:29:53;;;;;;;2.67;1.90;;;;;;;20.86;65.80;99718.63;10337672;28;20396;-52
2023/08/26 22:34:54;;;;;;;3.55;2.00;;;;;;;20.79;66.34;99743.78;10336847;28;20088;-53
2023/08/26 22:39:56;;;;;;;4.30;2.13;;;;;;;20.75;66.56;99731.69;10316786;28;20056;-53
2023/08/26 22:44:57;;;;;;;2.65;2.05;;;;;;;20.72;66.23;99732.09;10312633;28;20069;-52
2023/08/26 22:50:01;;;;;;;3.33;2.20;;;;;;;20.70;66.48;99727.94;10340042;28;20127;-50
2023/08/26 22:55:02;;;;;;;2.67;1.90;;;;;;;20.65;66.55;99726.66;10338084;28;20049;-53
2023/08/26 23:00:06;;;;;;;6.93;2.55;;;;;;;20.60;66.32;99712.88;10334789;28;20088;-53
2023/08/26 23:05:08;;;;;;;3.35;2.35;;;;;;;20.57;66.62;99726.81;10310245;28;20065;-52
2023/08/26 23:10:10;;;;;;;4.78;2.72;;;;;;;20.46;66.74;99703.91;10327191;28;21183;-51
2023/08/26 23:15:12;;;;;;;4.63;2.28;;;;;;;20.51;67.25;99707.84;10334171;28;20800;-51
2023/08/26 23:20:13;;;;;;;2.45;2.03;;;;;;;20.50;66.96;99693.50;10341075;28;20061;-52
2023/08/26 23:25:15;;;;;;;4.03;2.17;;;;;;;20.54;67.18;99685.84;10344502;28;20132;-52
2023/08/26 23:30:16;;;;;;;4.43;2.53;;;;;;;20.49;67.29;99671.06;10320858;28;20073;-52